createdAt,value
2023-05-05T00:02:26.710Z,67.10
2023-05-05T00:04:53.451Z,67.30
2023-05-05T00:07:20.142Z,67.70
2023-05-05T00:09:46.818Z,68.00
2023-05-05T00:12:13.637Z,68.00
2023-05-05T00:14:41.259Z,67.80
2023-05-05T00:17:08.123Z,67.50
2023-05-05T00:19:35.052Z,67.60
2023-05-05T00:22:01.710Z,67.30
2023-05-05T00:24:28.410Z,68.00
2023-05-05T00:26:55.057Z,67.70
2023-05-05T00:29:21.781Z,68.10
2023-05-05T00:31:51.764Z,68.30
2023-05-05T00:34:19.696Z,68.50
2023-05-05T00:36:46.415Z,68.50
2023-05-05T00:39:13.142Z,68.50
2023-05-05T00:41:40.765Z,68.60
2023-05-05T00:44:07.445Z,68.00
2023-05-05T00:46:35.271Z,68.40
2023-05-05T00:49:02.350Z,68.10
2023-05-05T00:51:29.276Z,68.10
2023-05-05T00:53:56.789Z,68.80
2023-05-05T00:56:25.057Z,68.70
2023-05-05T00:58:51.878Z,68.30
2023-05-05T01:01:18.948Z,68.30
2023-05-05T01:03:45.866Z,68.90
2023-05-05T01:06:18.320Z,68.90
2023-05-05T01:09:12.802Z,69.00
2023-05-05T01:12:00.361Z,69.30
2023-05-05T01:14:40.180Z,69.10
2023-05-05T01:17:24.374Z,67.70
2023-05-05T01:19:59.278Z,67.50
2023-05-05T01:22:32.055Z,68.10
2023-05-05T01:25:28.138Z,68.20
2023-05-05T01:28:11.308Z,68.10
2023-05-05T01:30:56.903Z,68.30
2023-05-05T01:33:28.784Z,68.40
2023-05-05T01:36:03.195Z,68.80
2023-05-05T01:38:37.847Z,68.70
2023-05-05T01:41:17.234Z,68.90
2023-05-05T01:43:47.419Z,68.60
2023-05-05T01:46:16.191Z,68.80
2023-05-05T01:48:44.377Z,68.80
2023-05-05T01:51:12.396Z,68.90
2023-05-05T01:53:39.688Z,68.70
2023-05-05T01:56:08.263Z,68.20
2023-05-05T01:58:36.316Z,69.20
2023-05-05T02:01:04.707Z,69.50
2023-05-05T02:03:32.095Z,69.80
2023-05-05T02:06:01.128Z,69.60
2023-05-05T02:08:29.937Z,70.20
2023-05-05T02:10:57.586Z,69.60
2023-05-05T02:13:26.087Z,70.00
2023-05-05T02:15:54.038Z,70.20
2023-05-05T02:18:22.812Z,70.00
2023-05-05T02:20:50.528Z,70.40
2023-05-05T02:23:17.267Z,69.80
2023-05-05T02:25:51.024Z,70.40
2023-05-05T02:28:22.242Z,70.80
2023-05-05T02:30:57.562Z,70.00
2023-05-05T02:33:27.336Z,71.80
2023-05-05T02:35:56.657Z,71.60
2023-05-05T02:38:29.323Z,72.30
2023-05-05T02:41:01.544Z,73.50
2023-05-05T02:43:31.086Z,72.50
2023-05-05T02:45:57.742Z,71.70
2023-05-05T02:48:24.767Z,71.20
2023-05-05T02:50:53.215Z,71.00
2023-05-05T02:53:27.466Z,71.20
2023-05-05T02:56:19.723Z,71.50
2023-05-05T02:59:01.399Z,71.10
2023-05-05T03:01:51.217Z,70.90
2023-05-05T03:04:38.214Z,70.60
2023-05-05T03:07:12.036Z,70.30
2023-05-05T03:09:51.660Z,71.00
2023-05-05T03:12:22.378Z,71.20
2023-05-05T03:15:13.455Z,71.80
2023-05-05T03:17:41.548Z,71.80
2023-05-05T03:20:10.258Z,71.70
2023-05-05T03:22:40.251Z,71.30
2023-05-05T03:25:11.534Z,72.00
2023-05-05T03:27:38.306Z,72.10
2023-05-05T03:30:06.926Z,71.60
2023-05-05T03:32:36.381Z,71.40
2023-05-05T03:35:03.131Z,70.70
2023-05-05T03:37:33.000Z,70.30
2023-05-05T03:39:59.814Z,70.90
2023-05-05T03:42:27.037Z,71.70
2023-05-05T03:44:53.822Z,72.00
2023-05-05T03:47:24.614Z,72.40
2023-05-05T03:49:52.446Z,72.40
2023-05-05T03:52:19.323Z,72.30
2023-05-05T03:54:46.424Z,72.10
2023-05-05T03:57:13.078Z,72.50
2023-05-05T03:59:40.995Z,73.30
2023-05-05T04:02:08.642Z,73.30
2023-05-05T04:04:35.640Z,73.00
2023-05-05T04:07:02.951Z,73.40
2023-05-05T04:09:29.769Z,72.90
2023-05-05T04:11:56.574Z,72.50
2023-05-05T04:14:23.305Z,72.40
2023-05-05T04:16:51.794Z,72.80
2023-05-05T04:19:18.902Z,72.60
2023-05-05T04:21:46.054Z,72.90
2023-05-05T04:24:13.508Z,73.30
2023-05-05T04:26:40.207Z,72.70
2023-05-05T04:29:06.934Z,72.40
2023-05-05T04:31:33.942Z,72.70
2023-05-05T04:34:00.849Z,72.90
2023-05-05T04:36:27.570Z,72.70
2023-05-05T04:38:54.613Z,72.80
2023-05-05T04:41:21.670Z,72.60
2023-05-05T04:43:48.889Z,72.30
2023-05-05T04:46:15.878Z,72.50
2023-05-05T04:48:42.788Z,72.40
2023-05-05T04:51:09.543Z,72.60
2023-05-05T04:53:37.408Z,72.20
2023-05-05T04:56:04.331Z,71.80
2023-05-05T04:58:31.235Z,72.30
2023-05-05T05:00:58.511Z,72.20
2023-05-05T05:03:25.487Z,72.00
2023-05-05T05:05:53.140Z,71.50
2023-05-05T05:08:19.991Z,71.00
2023-05-05T05:10:46.768Z,70.90
2023-05-05T05:13:13.522Z,71.20
2023-05-05T05:15:40.761Z,71.50
2023-05-05T05:18:07.491Z,71.60
2023-05-05T05:20:34.414Z,71.60
2023-05-05T05:23:02.315Z,71.50
2023-05-05T05:25:30.516Z,71.60
2023-05-05T05:28:08.861Z,71.40
2023-05-05T05:30:38.643Z,71.10
2023-05-05T05:33:06.910Z,70.70
2023-05-05T05:35:34.235Z,70.80
2023-05-05T05:38:01.349Z,70.70
2023-05-05T05:40:28.386Z,70.20
2023-05-05T05:42:55.339Z,70.00
2023-05-05T05:45:23.620Z,69.80
2023-05-05T05:47:51.003Z,68.80
2023-05-05T05:50:17.996Z,69.20
2023-05-05T05:52:45.004Z,68.70
2023-05-05T05:55:11.820Z,68.20
2023-05-05T05:57:39.321Z,68.00
2023-05-05T06:00:08.063Z,67.60
2023-05-05T06:02:44.853Z,67.60
2023-05-05T06:05:15.135Z,66.80
2023-05-05T06:07:42.895Z,66.20
2023-05-05T06:10:25.843Z,65.50
2023-05-05T06:12:57.783Z,65.10
2023-05-05T06:15:25.784Z,64.60
2023-05-05T06:17:52.707Z,64.20
2023-05-05T06:20:19.418Z,64.50
2023-05-05T06:22:46.296Z,63.60
2023-05-05T06:25:13.040Z,63.30
2023-05-05T06:27:39.804Z,63.10
2023-05-05T06:30:07.496Z,62.80
2023-05-05T06:32:34.610Z,62.10
2023-05-05T06:35:02.313Z,61.50
2023-05-05T06:37:28.978Z,61.30
2023-05-05T06:39:56.809Z,61.20
2023-05-05T06:42:23.553Z,58.10
2023-05-05T06:44:52.106Z,56.90
2023-05-05T06:47:18.831Z,57.70
2023-05-05T06:49:45.530Z,55.80
2023-05-05T06:52:12.622Z,54.90
2023-05-05T06:54:39.341Z,55.00
2023-05-05T06:57:06.394Z,54.30
2023-05-05T06:59:33.075Z,55.10
2023-05-05T07:01:59.737Z,54.30
2023-05-05T07:04:26.790Z,55.20
2023-05-05T07:06:55.143Z,54.80
2023-05-05T07:09:21.804Z,54.30
2023-05-05T07:11:48.482Z,55.10
2023-05-05T07:14:15.350Z,54.80
2023-05-05T07:16:42.093Z,54.00
2023-05-05T07:19:08.851Z,55.00
2023-05-05T07:21:36.442Z,52.90
2023-05-05T07:24:03.857Z,52.20
2023-05-05T07:26:30.773Z,52.30
2023-05-05T07:28:58.889Z,52.50
2023-05-05T07:31:26.281Z,51.20
2023-05-05T07:33:53.004Z,51.10
2023-05-05T07:36:19.812Z,51.60
2023-05-05T07:38:46.525Z,51.90
2023-05-05T07:41:13.290Z,51.90
2023-05-05T07:43:42.299Z,52.70
2023-05-05T07:46:10.322Z,51.00
2023-05-05T07:48:37.063Z,51.70
2023-05-05T07:51:03.857Z,52.20
2023-05-05T07:53:30.924Z,51.50
2023-05-05T07:55:57.660Z,50.70
2023-05-05T07:58:24.400Z,51.70
2023-05-05T08:00:51.331Z,52.70
2023-05-05T08:03:20.525Z,50.00
2023-05-05T08:05:47.855Z,50.60
2023-05-05T08:08:15.671Z,51.30
2023-05-05T08:10:42.392Z,51.10
2023-05-05T08:13:09.085Z,51.60
2023-05-05T08:15:35.866Z,52.50
2023-05-05T08:18:02.598Z,51.90
2023-05-05T08:20:29.879Z,52.60
2023-05-05T08:22:56.644Z,50.30
2023-05-05T08:25:23.352Z,51.00
2023-05-05T08:27:50.034Z,50.20
2023-05-05T08:30:20.691Z,51.90
2023-05-05T08:32:47.562Z,51.40
2023-05-05T08:35:14.310Z,49.60
2023-05-05T08:37:41.219Z,52.70
2023-05-05T08:40:10.982Z,50.20
2023-05-05T08:42:39.122Z,50.20
2023-05-05T08:45:08.399Z,50.60
2023-05-05T08:47:36.968Z,50.80
2023-05-05T08:50:05.901Z,49.60
2023-05-05T08:52:40.246Z,49.90
2023-05-05T08:55:24.382Z,48.90
2023-05-05T08:57:54.497Z,49.60
2023-05-05T09:00:21.542Z,49.10
2023-05-05T09:02:48.862Z,50.60
2023-05-05T09:05:16.777Z,49.30
2023-05-05T09:07:44.266Z,48.40
2023-05-05T09:10:11.982Z,48.60
2023-05-05T09:12:42.362Z,51.50
2023-05-05T09:15:14.395Z,49.90
2023-05-05T09:17:42.082Z,51.10
2023-05-05T09:20:13.742Z,49.40
2023-05-05T09:22:45.636Z,49.20
2023-05-05T09:25:18.128Z,52.30
2023-05-05T09:27:49.331Z,50.70
2023-05-05T09:30:24.976Z,49.10
2023-05-05T09:32:53.803Z,49.50
2023-05-05T09:35:22.153Z,47.90
2023-05-05T09:37:49.226Z,48.10
2023-05-05T09:40:18.242Z,47.30
2023-05-05T09:42:45.695Z,46.80
2023-05-05T09:45:18.148Z,48.00
2023-05-05T09:47:48.747Z,47.40
2023-05-05T09:50:18.649Z,47.10
2023-05-05T09:52:56.468Z,46.30
2023-05-05T09:55:24.301Z,47.90
2023-05-05T09:57:51.013Z,47.20
2023-05-05T10:00:17.949Z,46.70
2023-05-05T10:02:45.204Z,47.00
2023-05-05T10:05:14.056Z,46.10
2023-05-05T10:07:42.875Z,47.10
2023-05-05T10:10:15.395Z,46.20
2023-05-05T10:12:42.292Z,46.10
2023-05-05T10:15:11.196Z,45.30
2023-05-05T10:18:05.072Z,45.90
2023-05-05T10:20:33.412Z,45.80
2023-05-05T10:23:02.649Z,45.70
2023-05-05T10:25:33.713Z,45.70
2023-05-05T10:28:05.453Z,46.40
2023-05-05T10:30:36.476Z,46.80
2023-05-05T10:33:31.970Z,45.80
2023-05-05T10:36:02.492Z,46.10
2023-05-05T10:38:31.078Z,45.90
2023-05-05T10:41:00.689Z,45.10
2023-05-05T10:43:30.065Z,44.30
2023-05-05T10:45:57.384Z,45.50
2023-05-05T10:48:42.878Z,45.20
2023-05-05T10:52:10.015Z,46.00
2023-05-05T10:54:39.348Z,45.80
2023-05-05T10:57:10.563Z,45.30
2023-05-05T10:59:37.385Z,44.50
2023-05-05T11:02:26.294Z,44.80
2023-05-05T11:05:06.073Z,44.40
2023-05-05T11:07:34.317Z,44.50
2023-05-05T11:10:02.984Z,44.00
2023-05-05T11:12:31.123Z,44.00
2023-05-05T11:15:31.778Z,42.90
2023-05-05T11:18:01.484Z,43.20
2023-05-05T11:20:35.736Z,41.20
2023-05-05T11:23:02.398Z,41.30
2023-05-05T11:25:35.129Z,42.70
2023-05-05T11:28:16.566Z,41.20
2023-05-05T11:30:58.658Z,42.30
2023-05-05T11:33:31.777Z,42.80
2023-05-05T11:35:59.303Z,42.50
2023-05-05T11:38:47.523Z,42.30
2023-05-05T11:41:34.386Z,41.50
2023-05-05T11:44:11.077Z,41.70
2023-05-05T11:46:40.303Z,42.20
2023-05-05T11:49:09.141Z,41.80
2023-05-05T11:51:36.366Z,41.80
2023-05-05T11:54:03.180Z,41.30
2023-05-05T11:56:29.940Z,42.10
2023-05-05T11:59:23.211Z,43.60
2023-05-05T12:01:50.045Z,42.50
2023-05-05T12:04:17.190Z,42.40
2023-05-05T12:06:45.524Z,42.40
2023-05-05T12:09:16.830Z,43.10
2023-05-05T12:11:53.321Z,43.20
2023-05-05T12:14:20.915Z,43.50
2023-05-05T12:17:21.086Z,43.80
2023-05-05T12:19:51.829Z,43.90
2023-05-05T12:22:20.490Z,44.30
2023-05-05T12:24:57.837Z,45.20
2023-05-05T12:27:26.283Z,45.00
2023-05-05T12:29:55.141Z,44.60
2023-05-05T12:32:24.400Z,43.90
2023-05-05T12:34:57.368Z,43.40
2023-05-05T12:37:26.031Z,42.60
2023-05-05T12:39:55.007Z,42.60
2023-05-05T12:42:22.575Z,42.30
2023-05-05T12:44:49.615Z,42.40
2023-05-05T12:47:31.472Z,42.70
2023-05-05T12:50:00.294Z,43.30
2023-05-05T12:52:45.733Z,42.20
2023-05-05T12:55:13.194Z,42.20
2023-05-05T12:58:00.420Z,42.20
2023-05-05T13:00:27.426Z,44.20
2023-05-05T13:02:54.224Z,43.60
2023-05-05T13:05:31.166Z,43.30
2023-05-05T13:07:58.026Z,43.00
2023-05-05T13:10:28.375Z,42.50
2023-05-05T13:12:56.782Z,42.50
2023-05-05T13:15:24.609Z,42.50
2023-05-05T13:17:51.340Z,41.80
2023-05-05T13:20:18.139Z,41.60
2023-05-05T13:22:44.813Z,42.30
2023-05-05T13:25:11.768Z,42.30
2023-05-05T13:27:38.637Z,42.10
2023-05-05T13:30:06.325Z,41.90
2023-05-05T13:32:33.061Z,42.40
2023-05-05T13:34:59.717Z,42.30
2023-05-05T13:37:26.426Z,42.50
2023-05-05T13:39:55.379Z,42.80
2023-05-05T13:42:22.050Z,41.80
2023-05-05T13:44:48.727Z,43.20
2023-05-05T13:47:15.439Z,41.30
2023-05-05T13:49:42.321Z,41.00
2023-05-05T13:52:09.065Z,41.00
2023-05-05T13:54:36.650Z,40.50
2023-05-05T13:57:03.456Z,40.60
2023-05-05T13:59:30.449Z,40.30
2023-05-05T14:01:57.166Z,40.50
2023-05-05T14:04:23.941Z,40.30
2023-05-05T14:06:50.679Z,40.20
2023-05-05T14:09:17.361Z,40.90
2023-05-05T14:11:44.119Z,41.70
2023-05-05T14:14:11.277Z,41.70
2023-05-05T14:16:37.988Z,41.40
2023-05-05T14:19:04.743Z,41.80
2023-05-05T14:21:32.530Z,41.30
2023-05-05T14:23:59.339Z,40.30
2023-05-05T14:26:26.233Z,39.10
2023-05-05T14:28:52.962Z,39.70
2023-05-05T14:31:20.087Z,40.40
2023-05-05T14:33:46.877Z,39.10
2023-05-05T14:36:14.257Z,38.80
2023-05-05T14:38:42.744Z,38.30
2023-05-05T14:41:09.496Z,37.60
2023-05-05T14:43:36.873Z,38.10
2023-05-05T14:46:06.728Z,37.70
2023-05-05T14:48:34.256Z,37.10
2023-05-05T14:51:01.116Z,37.70
2023-05-05T14:53:27.936Z,36.90
2023-05-05T14:55:55.938Z,36.80
2023-05-05T14:58:24.531Z,36.80
2023-05-05T15:00:52.848Z,37.40
2023-05-05T15:03:19.698Z,37.90
2023-05-05T15:05:46.503Z,38.10
2023-05-05T15:08:14.476Z,38.10
2023-05-05T15:10:41.224Z,38.00
2023-05-05T15:13:08.041Z,36.90
2023-05-05T15:15:34.865Z,36.70
2023-05-05T15:18:01.687Z,36.10
2023-05-05T15:20:28.519Z,36.10
2023-05-05T15:22:55.502Z,36.80
2023-05-05T15:25:23.380Z,37.10
2023-05-05T15:27:51.114Z,37.30
2023-05-05T15:30:17.889Z,37.20
2023-05-05T15:32:44.649Z,37.30
2023-05-05T15:35:11.385Z,36.90
2023-05-05T15:37:38.213Z,36.60
2023-05-05T15:40:05.540Z,36.40
2023-05-05T15:42:33.796Z,36.10
2023-05-05T15:45:01.700Z,36.20
2023-05-05T15:47:28.503Z,36.80
2023-05-05T15:49:55.279Z,37.80
2023-05-05T15:52:22.131Z,37.40
2023-05-05T15:54:48.833Z,37.50
2023-05-05T15:57:15.878Z,37.80
2023-05-05T15:59:42.594Z,38.20
2023-05-05T16:02:09.292Z,39.20
2023-05-05T16:04:36.236Z,40.10
2023-05-05T16:07:03.346Z,40.90
2023-05-05T16:09:30.137Z,41.50
2023-05-05T16:16:51.293Z,43.00
2023-05-05T16:22:47.734Z,44.00
2023-05-05T16:25:19.300Z,44.20
2023-05-05T16:28:24.799Z,44.50
2023-05-05T16:31:05.606Z,45.50
2023-05-05T16:33:36.295Z,46.00
2023-05-05T16:51:01.375Z,49.20
2023-05-05T17:06:18.142Z,49.90
2023-05-05T17:10:08.773Z,50.40
2023-05-05T17:16:57.394Z,50.70
2023-05-05T17:20:32.066Z,51.00
2023-05-05T17:22:57.622Z,51.20
2023-05-05T17:25:27.347Z,51.70
2023-05-05T17:27:55.190Z,51.80
2023-05-05T17:30:22.674Z,52.50
2023-05-05T17:32:49.650Z,52.70
2023-05-05T17:35:16.784Z,52.70
2023-05-05T17:37:43.968Z,53.40
2023-05-05T17:40:11.089Z,54.50
2023-05-05T17:42:38.375Z,55.60
2023-05-05T17:45:06.515Z,58.30
2023-05-05T17:47:33.580Z,64.20
2023-05-05T17:50:00.744Z,67.80
2023-05-05T17:52:27.767Z,71.90
2023-05-05T17:54:54.744Z,75.30
2023-05-05T17:57:22.772Z,81.10
2023-05-05T17:59:50.425Z,84.10
2023-05-05T18:02:19.099Z,85.70
2023-05-05T18:04:46.566Z,85.50
2023-05-05T18:07:14.798Z,86.50
2023-05-05T18:09:42.369Z,83.20
2023-05-05T18:12:09.550Z,83.90
2023-05-05T18:14:36.809Z,85.00
2023-05-05T18:17:04.671Z,86.70
2023-05-05T18:19:31.905Z,86.80
2023-05-05T18:21:59.172Z,86.90
2023-05-05T18:24:26.557Z,87.10
2023-05-05T18:26:53.565Z,84.90
2023-05-05T18:29:21.938Z,84.50
2023-05-05T18:31:51.936Z,83.40
2023-05-05T18:34:20.631Z,86.10
2023-05-05T18:36:48.138Z,85.20
2023-05-05T18:39:15.544Z,84.40
2023-05-05T18:41:42.570Z,85.30
2023-05-05T18:44:10.534Z,82.70
2023-05-05T18:46:37.557Z,84.60
2023-05-05T18:49:04.676Z,85.50
2023-05-05T18:51:32.245Z,85.80
2023-05-05T18:54:00.983Z,85.90
2023-05-05T18:56:28.018Z,85.10
2023-05-05T18:58:54.952Z,83.70
2023-05-05T19:01:22.231Z,83.10
2023-05-05T19:03:49.444Z,83.80
2023-05-05T19:06:17.034Z,83.40
2023-05-05T19:08:45.189Z,83.60
2023-05-05T19:11:12.602Z,85.50
2023-05-05T19:13:39.848Z,84.80
2023-05-05T19:16:07.414Z,84.50
2023-05-05T19:18:34.628Z,84.50
2023-05-05T19:21:02.088Z,84.70
2023-05-05T19:23:29.066Z,85.00
2023-05-05T19:25:56.089Z,84.70
2023-05-05T19:28:23.052Z,84.50
2023-05-05T19:30:49.976Z,84.70
2023-05-05T19:33:17.109Z,84.90
2023-05-05T19:35:44.426Z,85.00
2023-05-05T19:38:12.063Z,84.30
2023-05-05T19:40:39.619Z,86.30
2023-05-05T19:43:06.972Z,84.20
2023-05-05T19:45:34.042Z,83.40
2023-05-05T19:48:01.966Z,84.20
2023-05-05T19:50:30.374Z,83.50
2023-05-05T19:52:58.063Z,83.50
2023-05-05T19:55:25.182Z,82.30
2023-05-05T19:57:52.184Z,83.10
2023-05-05T20:00:19.877Z,84.00
2023-05-05T20:02:48.665Z,84.90
2023-05-05T20:05:17.448Z,83.00
2023-05-05T20:07:46.846Z,83.10
2023-05-05T20:10:14.268Z,82.50
2023-05-05T20:12:48.922Z,82.00
2023-05-05T20:15:19.893Z,82.40
2023-05-05T20:17:48.078Z,82.20
2023-05-05T20:20:20.488Z,82.20
2023-05-05T20:22:48.461Z,82.70
2023-05-05T20:25:18.747Z,82.90
2023-05-05T20:27:45.903Z,82.90
2023-05-05T20:30:13.340Z,82.50
2023-05-05T20:32:41.841Z,83.40
2023-05-05T20:35:09.352Z,83.50
2023-05-05T20:37:36.091Z,84.10
2023-05-05T20:40:02.948Z,83.60
2023-05-05T20:42:29.801Z,83.20
2023-05-05T20:44:56.671Z,82.50
2023-05-05T20:47:24.083Z,82.90
2023-05-05T20:49:52.114Z,82.90
2023-05-05T20:52:18.872Z,83.00
2023-05-05T20:54:45.550Z,82.90
2023-05-05T20:57:12.230Z,82.50
2023-05-05T20:59:38.953Z,82.00
2023-05-05T21:02:05.837Z,81.90
2023-05-05T21:04:32.670Z,81.90
2023-05-05T21:06:59.443Z,81.90
2023-05-05T21:09:26.168Z,81.70
2023-05-05T21:11:52.862Z,81.60
2023-05-05T21:14:19.548Z,81.30
2023-05-05T21:16:46.509Z,81.20
2023-05-05T21:19:13.210Z,81.40
2023-05-05T21:21:39.962Z,81.60
2023-05-05T21:24:07.995Z,81.20
2023-05-05T21:26:35.047Z,81.10
2023-05-05T21:29:01.740Z,81.80
2023-05-05T21:31:28.515Z,82.00
2023-05-05T21:33:55.303Z,82.90
2023-05-05T21:36:22.017Z,82.80
2023-05-05T21:38:49.417Z,83.50
2023-05-05T21:41:16.693Z,82.80
2023-05-05T21:43:43.418Z,81.90
2023-05-05T21:46:10.138Z,82.00
2023-05-05T21:48:38.788Z,82.50
2023-05-05T21:51:06.629Z,82.80
2023-05-05T21:53:33.324Z,81.90
2023-05-05T21:56:00.060Z,82.10
2023-05-05T21:58:26.919Z,82.40
2023-05-05T22:00:53.670Z,82.10
2023-05-05T22:03:20.750Z,82.20
2023-05-05T22:05:47.456Z,82.90
2023-05-05T22:08:14.196Z,83.00
2023-05-05T22:10:40.980Z,83.20
2023-05-05T22:13:10.408Z,83.10
2023-05-05T22:15:46.110Z,82.40
2023-05-05T22:18:14.631Z,82.20
2023-05-05T22:20:41.417Z,82.30
2023-05-05T22:23:08.169Z,82.50
2023-05-05T22:25:35.398Z,82.60
2023-05-05T22:28:02.530Z,82.20
2023-05-05T22:30:29.218Z,82.40
2023-05-05T22:32:56.090Z,82.30
2023-05-05T22:35:22.780Z,82.00
2023-05-05T22:37:49.500Z,81.90
2023-05-05T22:40:16.263Z,81.80
2023-05-05T22:42:43.029Z,81.00
2023-05-05T22:45:10.380Z,81.60
2023-05-05T22:47:37.420Z,81.60
2023-05-05T22:50:04.417Z,81.30
2023-05-05T22:52:31.464Z,81.70
2023-05-05T22:54:58.122Z,82.20
2023-05-05T22:57:24.806Z,82.40
2023-05-05T22:59:51.590Z,82.90
2023-05-05T23:02:18.288Z,82.70
2023-05-05T23:04:45.304Z,82.70
2023-05-05T23:07:12.756Z,83.30
2023-05-05T23:09:39.638Z,82.30
2023-05-05T23:12:06.653Z,82.40
2023-05-05T23:14:33.428Z,82.20
2023-05-05T23:17:00.142Z,81.80
2023-05-05T23:19:28.958Z,81.70
2023-05-05T23:21:55.684Z,82.00
2023-05-05T23:24:22.363Z,81.90
2023-05-05T23:26:49.034Z,81.80
2023-05-05T23:29:15.709Z,81.00
2023-05-05T23:31:42.456Z,81.10
2023-05-05T23:34:09.168Z,81.30
2023-05-05T23:36:35.823Z,81.10
2023-05-05T23:39:02.527Z,81.20
2023-05-05T23:41:29.184Z,80.70
2023-05-05T23:43:56.557Z,80.80
2023-05-05T23:46:23.973Z,80.30
2023-05-05T23:48:51.156Z,80.70
2023-05-05T23:51:18.077Z,80.80
2023-05-05T23:53:44.792Z,80.80
2023-05-05T23:56:11.993Z,81.10
2023-05-05T23:58:38.700Z,81.10
